sensor_id;sensor_type;location;lat;lon;timestamp;temperature;humidity
23546;DHT22;11951;52.138;4.464;2022-07-01T00:01:56;15.90;97.10
23546;DHT22;11951;52.138;4.464;2022-07-01T00:04:22;15.90;97.10
23546;DHT22;11951;52.138;4.464;2022-07-01T00:06:52;15.90;97.10
23546;DHT22;11951;52.138;4.464;2022-07-01T00:09:18;15.90;97.10
23546;DHT22;11951;52.138;4.464;2022-07-01T00:11:52;15.90;97.10
23546;DHT22;11951;52.138;4.464;2022-07-01T00:14:18;16.00;97.10
23546;DHT22;11951;52.138;4.464;2022-07-01T00:16:43;15.90;97.10
23546;DHT22;11951;52.138;4.464;2022-07-01T00:19:09;15.90;97.10
23546;DHT22;11951;52.138;4.464;2022-07-01T00:21:34;15.80;97.10
23546;DHT22;11951;52.138;4.464;2022-07-01T00:24:00;15.80;97.10
23546;DHT22;11951;52.138;4.464;2022-07-01T00:26:25;15.80;97.10
23546;DHT22;11951;52.138;4.464;2022-07-01T00:28:51;15.90;97.10
23546;DHT22;11951;52.138;4.464;2022-07-01T00:31:16;15.90;97.10
23546;DHT22;11951;52.138;4.464;2022-07-01T00:33:42;15.90;97.10
23546;DHT22;11951;52.138;4.464;2022-07-01T00:36:07;15.90;97.10
23546;DHT22;11951;52.138;4.464;2022-07-01T00:38:33;15.90;97.10
23546;DHT22;11951;52.138;4.464;2022-07-01T00:40:58;15.90;97.10
23546;DHT22;11951;52.138;4.464;2022-07-01T00:43:24;15.90;97.10
23546;DHT22;11951;52.138;4.464;2022-07-01T00:45:50;15.90;97.10
23546;DHT22;11951;52.138;4.464;2022-07-01T00:48:15;15.90;97.10
23546;DHT22;11951;52.138;4.464;2022-07-01T00:50:42;15.80;97.10
23546;DHT22;11951;52.138;4.464;2022-07-01T00:53:07;15.80;97.10
23546;DHT22;11951;52.138;4.464;2022-07-01T00:55:33;15.80;97.10
23546;DHT22;11951;52.138;4.464;2022-07-01T00:57:59;15.70;97.10
23546;DHT22;11951;52.138;4.464;2022-07-01T01:00:24;15.70;97.10
23546;DHT22;11951;52.138;4.464;2022-07-01T01:02:51;15.70;97.10
23546;DHT22;11951;52.138;4.464;2022-07-01T01:05:17;15.70;97.10
23546;DHT22;11951;52.138;4.464;2022-07-01T01:07:50;15.70;97.10
23546;DHT22;11951;52.138;4.464;2022-07-01T01:10:16;15.70;97.10
23546;DHT22;11951;52.138;4.464;2022-07-01T01:12:41;15.70;97.10
23546;DHT22;11951;52.138;4.464;2022-07-01T01:15:07;15.60;97.10
23546;DHT22;11951;52.138;4.464;2022-07-01T01:17:33;15.60;97.10
23546;DHT22;11951;52.138;4.464;2022-07-01T01:19:58;15.60;97.10
23546;DHT22;11951;52.138;4.464;2022-07-01T01:22:24;15.60;97.10
23546;DHT22;11951;52.138;4.464;2022-07-01T01:24:50;15.60;97.10
23546;DHT22;11951;52.138;4.464;2022-07-01T01:27:15;15.60;97.10
23546;DHT22;11951;52.138;4.464;2022-07-01T01:29:41;15.60;97.10
23546;DHT22;11951;52.138;4.464;2022-07-01T01:32:07;15.60;97.10
23546;DHT22;11951;52.138;4.464;2022-07-01T01:34:36;15.60;97.10
23546;DHT22;11951;52.138;4.464;2022-07-01T01:37:02;15.60;97.10
23546;DHT22;11951;52.138;4.464;2022-07-01T01:39:27;15.60;97.10
23546;DHT22;11951;52.138;4.464;2022-07-01T01:41:53;15.50;97.10
23546;DHT22;11951;52.138;4.464;2022-07-01T01:44:18;15.60;97.10
23546;DHT22;11951;52.138;4.464;2022-07-01T01:46:44;15.50;97.10
23546;DHT22;11951;52.138;4.464;2022-07-01T01:49:10;15.50;97.10
23546;DHT22;11951;52.138;4.464;2022-07-01T01:51:36;15.50;97.10
23546;DHT22;11951;52.138;4.464;2022-07-01T01:54:01;15.50;97.10
23546;DHT22;11951;52.138;4.464;2022-07-01T01:56:27;15.50;97.10
23546;DHT22;11951;52.138;4.464;2022-07-01T01:58:53;15.50;97.10
23546;DHT22;11951;52.138;4.464;2022-07-01T02:01:19;15.50;97.10
23546;DHT22;11951;52.138;4.464;2022-07-01T02:03:46;15.60;97.10
23546;DHT22;11951;52.138;4.464;2022-07-01T02:06:12;15.50;97.10
23546;DHT22;11951;52.138;4.464;2022-07-01T02:08:38;15.50;97.10
23546;DHT22;11951;52.138;4.464;2022-07-01T02:11:03;15.50;97.10
23546;DHT22;11951;52.138;4.464;2022-07-01T02:13:29;15.50;97.10
23546;DHT22;11951;52.138;4.464;2022-07-01T02:15:55;15.50;97.10
23546;DHT22;11951;52.138;4.464;2022-07-01T02:18:23;15.50;97.10
23546;DHT22;11951;52.138;4.464;2022-07-01T02:20:49;15.60;97.10
23546;DHT22;11951;52.138;4.464;2022-07-01T02:23:14;15.60;97.10
23546;DHT22;11951;52.138;4.464;2022-07-01T02:25:42;15.60;97.10
23546;DHT22;11951;52.138;4.464;2022-07-01T02:28:08;15.60;97.10
23546;DHT22;11951;52.138;4.464;2022-07-01T02:30:34;15.60;97.10
23546;DHT22;11951;52.138;4.464;2022-07-01T02:33:03;15.60;97.10
23546;DHT22;11951;52.138;4.464;2022-07-01T02:35:29;15.60;97.10
23546;DHT22;11951;52.138;4.464;2022-07-01T02:37:54;15.70;97.10
23546;DHT22;11951;52.138;4.464;2022-07-01T02:40:20;15.70;97.10
23546;DHT22;11951;52.138;4.464;2022-07-01T02:42:46;15.60;97.10
23546;DHT22;11951;52.138;4.464;2022-07-01T02:45:12;15.60;97.10
23546;DHT22;11951;52.138;4.464;2022-07-01T02:47:38;15.60;97.10
23546;DHT22;11951;52.138;4.464;2022-07-01T02:50:05;15.60;97.10
23546;DHT22;11951;52.138;4.464;2022-07-01T02:52:30;15.60;97.10
23546;DHT22;11951;52.138;4.464;2022-07-01T02:54:57;15.60;97.10
23546;DHT22;11951;52.138;4.464;2022-07-01T02:57:23;15.60;97.10
23546;DHT22;11951;52.138;4.464;2022-07-01T02:59:48;15.60;97.10
23546;DHT22;11951;52.138;4.464;2022-07-01T03:02:16;15.60;97.10
23546;DHT22;11951;52.138;4.464;2022-07-01T03:04:43;15.60;97.10
23546;DHT22;11951;52.138;4.464;2022-07-01T03:07:08;15.50;97.10
23546;DHT22;11951;52.138;4.464;2022-07-01T03:09:35;15.50;97.10
23546;DHT22;11951;52.138;4.464;2022-07-01T03:12:00;15.50;97.10
23546;DHT22;11951;52.138;4.464;2022-07-01T03:14:46;15.50;97.10
23546;DHT22;11951;52.138;4.464;2022-07-01T03:17:11;15.50;97.10
23546;DHT22;11951;52.138;4.464;2022-07-01T03:19:37;15.40;97.10
23546;DHT22;11951;52.138;4.464;2022-07-01T03:22:02;15.40;97.10
23546;DHT22;11951;52.138;4.464;2022-07-01T03:24:28;15.40;97.10
23546;DHT22;11951;52.138;4.464;2022-07-01T03:26:53;15.40;97.10
23546;DHT22;11951;52.138;4.464;2022-07-01T03:29:19;15.40;97.10
23546;DHT22;11951;52.138;4.464;2022-07-01T03:31:44;15.40;97.10
23546;DHT22;11951;52.138;4.464;2022-07-01T03:34:10;15.40;97.10
23546;DHT22;11951;52.138;4.464;2022-07-01T03:36:35;15.40;97.10
23546;DHT22;11951;52.138;4.464;2022-07-01T03:39:01;15.40;97.10
23546;DHT22;11951;52.138;4.464;2022-07-01T03:41:28;15.40;97.10
23546;DHT22;11951;52.138;4.464;2022-07-01T03:43:54;15.40;97.10
23546;DHT22;11951;52.138;4.464;2022-07-01T03:46:19;15.40;97.10
23546;DHT22;11951;52.138;4.464;2022-07-01T03:48:45;15.30;97.10
23546;DHT22;11951;52.138;4.464;2022-07-01T03:51:10;15.30;97.10
23546;DHT22;11951;52.138;4.464;2022-07-01T03:53:36;15.30;97.10
23546;DHT22;11951;52.138;4.464;2022-07-01T03:56:20;15.30;97.10
23546;DHT22;11951;52.138;4.464;2022-07-01T03:58:45;15.30;97.10
23546;DHT22;11951;52.138;4.464;2022-07-01T04:01:11;15.30;97.10
23546;DHT22;11951;52.138;4.464;2022-07-01T04:03:52;15.40;97.10
23546;DHT22;11951;52.138;4.464;2022-07-01T04:06:18;15.40;97.10
23546;DHT22;11951;52.138;4.464;2022-07-01T04:08:44;15.40;97.10
23546;DHT22;11951;52.138;4.464;2022-07-01T04:11:10;15.40;97.10
23546;DHT22;11951;52.138;4.464;2022-07-01T04:13:37;15.40;97.10
23546;DHT22;11951;52.138;4.464;2022-07-01T04:16:03;15.40;97.10
23546;DHT22;11951;52.138;4.464;2022-07-01T04:18:29;15.40;97.10
23546;DHT22;11951;52.138;4.464;2022-07-01T04:20:55;15.40;97.10
23546;DHT22;11951;52.138;4.464;2022-07-01T04:23:39;15.40;97.10
23546;DHT22;11951;52.138;4.464;2022-07-01T04:26:04;15.50;97.10
23546;DHT22;11951;52.138;4.464;2022-07-01T04:28:30;15.50;97.10
23546;DHT22;11951;52.138;4.464;2022-07-01T04:30:55;15.60;97.10
23546;DHT22;11951;52.138;4.464;2022-07-01T04:33:21;15.70;97.10
23546;DHT22;11951;52.138;4.464;2022-07-01T04:35:46;15.70;97.10
23546;DHT22;11951;52.138;4.464;2022-07-01T04:38:12;15.80;97.10
23546;DHT22;11951;52.138;4.464;2022-07-01T04:40:38;15.80;97.10
23546;DHT22;11951;52.138;4.464;2022-07-01T04:43:03;15.80;97.10
23546;DHT22;11951;52.138;4.464;2022-07-01T04:45:29;15.80;97.10
23546;DHT22;11951;52.138;4.464;2022-07-01T04:47:54;15.80;97.10
23546;DHT22;11951;52.138;4.464;2022-07-01T04:50:20;15.80;97.10
23546;DHT22;11951;52.138;4.464;2022-07-01T04:52:45;15.80;97.10
23546;DHT22;11951;52.138;4.464;2022-07-01T04:55:11;15.80;97.10
23546;DHT22;11951;52.138;4.464;2022-07-01T04:57:37;15.70;97.10
23546;DHT22;11951;52.138;4.464;2022-07-01T05:00:03;15.80;97.10
23546;DHT22;11951;52.138;4.464;2022-07-01T05:02:29;15.80;97.10
23546;DHT22;11951;52.138;4.464;2022-07-01T05:04:54;15.90;97.10
23546;DHT22;11951;52.138;4.464;2022-07-01T05:07:20;15.80;97.10
23546;DHT22;11951;52.138;4.464;2022-07-01T05:09:55;15.80;97.10
23546;DHT22;11951;52.138;4.464;2022-07-01T05:12:21;15.80;97.10
23546;DHT22;11951;52.138;4.464;2022-07-01T05:14:47;15.90;97.10
23546;DHT22;11951;52.138;4.464;2022-07-01T05:17:13;15.90;97.10
23546;DHT22;11951;52.138;4.464;2022-07-01T05:19:38;16.00;97.10
23546;DHT22;11951;52.138;4.464;2022-07-01T05:22:23;16.00;97.10
23546;DHT22;11951;52.138;4.464;2022-07-01T05:24:48;16.00;97.10
23546;DHT22;11951;52.138;4.464;2022-07-01T05:27:14;16.00;97.10
23546;DHT22;11951;52.138;4.464;2022-07-01T05:29:39;16.10;97.10
23546;DHT22;11951;52.138;4.464;2022-07-01T05:32:05;16.10;97.10
23546;DHT22;11951;52.138;4.464;2022-07-01T05:34:30;16.30;97.10
23546;DHT22;11951;52.138;4.464;2022-07-01T05:36:56;16.40;97.10
23546;DHT22;11951;52.138;4.464;2022-07-01T05:39:22;16.50;97.10
23546;DHT22;11951;52.138;4.464;2022-07-01T05:41:47;16.50;97.10
23546;DHT22;11951;52.138;4.464;2022-07-01T05:44:13;16.50;97.10
23546;DHT22;11951;52.138;4.464;2022-07-01T05:46:38;16.40;97.10
23546;DHT22;11951;52.138;4.464;2022-07-01T05:49:04;16.50;97.10
23546;DHT22;11951;52.138;4.464;2022-07-01T05:51:30;16.60;97.10
23546;DHT22;11951;52.138;4.464;2022-07-01T05:53:55;16.70;97.10
23546;DHT22;11951;52.138;4.464;2022-07-01T05:56:22;16.70;97.10
23546;DHT22;11951;52.138;4.464;2022-07-01T05:58:47;16.80;97.10
23546;DHT22;11951;52.138;4.464;2022-07-01T06:01:13;16.80;97.10
23546;DHT22;11951;52.138;4.464;2022-07-01T06:03:38;16.70;97.10
23546;DHT22;11951;52.138;4.464;2022-07-01T06:06:04;16.60;97.10
23546;DHT22;11951;52.138;4.464;2022-07-01T06:08:30;16.70;97.10
23546;DHT22;11951;52.138;4.464;2022-07-01T06:10:55;16.80;97.10
23546;DHT22;11951;52.138;4.464;2022-07-01T06:13:21;16.80;97.10
23546;DHT22;11951;52.138;4.464;2022-07-01T06:15:46;16.90;97.10
23546;DHT22;11951;52.138;4.464;2022-07-01T06:18:12;16.90;97.10
23546;DHT22;11951;52.138;4.464;2022-07-01T06:20:37;16.90;97.10
23546;DHT22;11951;52.138;4.464;2022-07-01T06:23:03;16.90;97.10
23546;DHT22;11951;52.138;4.464;2022-07-01T06:25:28;16.90;97.10
23546;DHT22;11951;52.138;4.464;2022-07-01T06:27:54;17.00;97.10
23546;DHT22;11951;52.138;4.464;2022-07-01T06:30:19;17.00;97.10
23546;DHT22;11951;52.138;4.464;2022-07-01T06:32:45;17.10;97.10
23546;DHT22;11951;52.138;4.464;2022-07-01T06:35:10;17.20;97.10
23546;DHT22;11951;52.138;4.464;2022-07-01T06:37:36;17.40;97.10
23546;DHT22;11951;52.138;4.464;2022-07-01T06:40:05;17.40;97.10
23546;DHT22;11951;52.138;4.464;2022-07-01T06:42:31;17.40;97.10
23546;DHT22;11951;52.138;4.464;2022-07-01T06:44:57;17.50;97.10
23546;DHT22;11951;52.138;4.464;2022-07-01T06:47:22;17.60;97.10
23546;DHT22;11951;52.138;4.464;2022-07-01T06:49:48;17.80;97.10
23546;DHT22;11951;52.138;4.464;2022-07-01T06:52:14;17.90;97.10
23546;DHT22;11951;52.138;4.464;2022-07-01T06:54:39;18.00;97.10
23546;DHT22;11951;52.138;4.464;2022-07-01T06:57:05;18.00;97.10
23546;DHT22;11951;52.138;4.464;2022-07-01T06:59:31;18.10;97.10
23546;DHT22;11951;52.138;4.464;2022-07-01T07:01:56;18.10;97.10
23546;DHT22;11951;52.138;4.464;2022-07-01T07:04:22;18.20;97.10
23546;DHT22;11951;52.138;4.464;2022-07-01T07:06:47;18.30;97.10
23546;DHT22;11951;52.138;4.464;2022-07-01T07:09:13;18.30;97.10
23546;DHT22;11951;52.138;4.464;2022-07-01T07:11:38;18.40;97.10
23546;DHT22;11951;52.138;4.464;2022-07-01T07:14:04;18.40;97.10
23546;DHT22;11951;52.138;4.464;2022-07-01T07:16:29;18.60;97.10
23546;DHT22;11951;52.138;4.464;2022-07-01T07:18:55;18.80;97.10
23546;DHT22;11951;52.138;4.464;2022-07-01T07:21:21;18.80;97.10
23546;DHT22;11951;52.138;4.464;2022-07-01T07:23:46;18.90;97.10
23546;DHT22;11951;52.138;4.464;2022-07-01T07:26:14;19.00;97.10
23546;DHT22;11951;52.138;4.464;2022-07-01T07:28:40;19.00;97.10
23546;DHT22;11951;52.138;4.464;2022-07-01T07:31:05;18.90;97.10
23546;DHT22;11951;52.138;4.464;2022-07-01T07:33:31;18.80;97.10
23546;DHT22;11951;52.138;4.464;2022-07-01T07:35:56;18.80;97.10
23546;DHT22;11951;52.138;4.464;2022-07-01T07:38:22;18.90;97.10
23546;DHT22;11951;52.138;4.464;2022-07-01T07:40:47;18.80;97.10
23546;DHT22;11951;52.138;4.464;2022-07-01T07:43:13;18.70;97.10
23546;DHT22;11951;52.138;4.464;2022-07-01T07:45:38;18.80;97.10
23546;DHT22;11951;52.138;4.464;2022-07-01T07:48:04;18.80;97.10
23546;DHT22;11951;52.138;4.464;2022-07-01T07:50:31;18.90;97.10
23546;DHT22;11951;52.138;4.464;2022-07-01T07:52:56;19.20;97.10
23546;DHT22;11951;52.138;4.464;2022-07-01T07:55:22;19.30;97.10
23546;DHT22;11951;52.138;4.464;2022-07-01T07:57:47;19.20;97.10
23546;DHT22;11951;52.138;4.464;2022-07-01T08:00:13;18.80;97.10
23546;DHT22;11951;52.138;4.464;2022-07-01T08:02:39;18.00;97.10
23546;DHT22;11951;52.138;4.464;2022-07-01T08:05:05;17.50;97.10
23546;DHT22;11951;52.138;4.464;2022-07-01T08:07:34;17.40;97.10
23546;DHT22;11951;52.138;4.464;2022-07-01T08:09:59;17.20;97.10
23546;DHT22;11951;52.138;4.464;2022-07-01T08:12:25;17.10;97.10
23546;DHT22;11951;52.138;4.464;2022-07-01T08:14:51;17.00;97.10
23546;DHT22;11951;52.138;4.464;2022-07-01T08:17:17;16.80;97.10
23546;DHT22;11951;52.138;4.464;2022-07-01T08:19:42;16.70;97.10
23546;DHT22;11951;52.138;4.464;2022-07-01T08:22:08;16.80;97.10
23546;DHT22;11951;52.138;4.464;2022-07-01T08:24:41;16.90;97.10
23546;DHT22;11951;52.138;4.464;2022-07-01T08:27:06;17.10;97.10
23546;DHT22;11951;52.138;4.464;2022-07-01T08:29:32;17.30;97.10
23546;DHT22;11951;52.138;4.464;2022-07-01T08:31:58;17.20;97.10
23546;DHT22;11951;52.138;4.464;2022-07-01T08:34:23;17.30;97.10
23546;DHT22;11951;52.138;4.464;2022-07-01T08:36:49;17.30;97.10
23546;DHT22;11951;52.138;4.464;2022-07-01T08:39:14;17.40;97.10
23546;DHT22;11951;52.138;4.464;2022-07-01T08:41:40;17.50;97.10
23546;DHT22;11951;52.138;4.464;2022-07-01T08:44:07;17.70;97.10
23546;DHT22;11951;52.138;4.464;2022-07-01T08:46:34;17.90;97.10
23546;DHT22;11951;52.138;4.464;2022-07-01T08:49:00;18.00;97.10
23546;DHT22;11951;52.138;4.464;2022-07-01T08:51:25;18.00;97.10
23546;DHT22;11951;52.138;4.464;2022-07-01T08:53:51;18.20;97.10
23546;DHT22;11951;52.138;4.464;2022-07-01T08:56:16;18.40;97.10
23546;DHT22;11951;52.138;4.464;2022-07-01T08:59:01;18.50;97.10
23546;DHT22;11951;52.138;4.464;2022-07-01T09:01:26;18.50;97.10
23546;DHT22;11951;52.138;4.464;2022-07-01T09:03:53;18.40;97.10
23546;DHT22;11951;52.138;4.464;2022-07-01T09:06:19;18.30;97.10
23546;DHT22;11951;52.138;4.464;2022-07-01T09:08:45;18.30;97.10
23546;DHT22;11951;52.138;4.464;2022-07-01T09:11:15;18.50;97.10
23546;DHT22;11951;52.138;4.464;2022-07-01T09:13:41;18.50;97.10
23546;DHT22;11951;52.138;4.464;2022-07-01T09:16:10;18.70;97.10
23546;DHT22;11951;52.138;4.464;2022-07-01T09:18:36;18.90;97.10
23546;DHT22;11951;52.138;4.464;2022-07-01T09:21:01;19.10;97.10
23546;DHT22;11951;52.138;4.464;2022-07-01T09:23:27;19.30;97.10
23546;DHT22;11951;52.138;4.464;2022-07-01T09:25:56;19.40;97.10
23546;DHT22;11951;52.138;4.464;2022-07-01T09:28:22;19.60;97.10
23546;DHT22;11951;52.138;4.464;2022-07-01T09:30:48;19.70;97.10
23546;DHT22;11951;52.138;4.464;2022-07-01T09:33:18;19.90;97.10
23546;DHT22;11951;52.138;4.464;2022-07-01T09:35:44;19.70;97.10
23546;DHT22;11951;52.138;4.464;2022-07-01T09:38:11;19.60;97.10
23546;DHT22;11951;52.138;4.464;2022-07-01T09:40:46;19.50;97.10
23546;DHT22;11951;52.138;4.464;2022-07-01T09:43:45;19.40;97.10
23546;DHT22;11951;52.138;4.464;2022-07-01T09:46:08;19.40;97.10
23546;DHT22;11951;52.138;4.464;2022-07-01T09:51:03;19.30;97.10
23546;DHT22;11951;52.138;4.464;2022-07-01T09:53:29;19.30;97.10
23546;DHT22;11951;52.138;4.464;2022-07-01T09:55:54;19.10;97.10
23546;DHT22;11951;52.138;4.464;2022-07-01T09:58:20;19.00;97.10
23546;DHT22;11951;52.138;4.464;2022-07-01T10:00:46;18.70;97.10
23546;DHT22;11951;52.138;4.464;2022-07-01T10:03:11;18.30;97.10
23546;DHT22;11951;52.138;4.464;2022-07-01T10:05:38;18.20;97.10
23546;DHT22;11951;52.138;4.464;2022-07-01T10:13:35;18.50;97.10
23546;DHT22;11951;52.138;4.464;2022-07-01T10:16:01;18.80;97.10
23546;DHT22;11951;52.138;4.464;2022-07-01T10:18:27;19.30;97.10
23546;DHT22;11951;52.138;4.464;2022-07-01T10:20:53;19.70;97.10
23546;DHT22;11951;52.138;4.464;2022-07-01T10:23:20;20.00;97.10
23546;DHT22;11951;52.138;4.464;2022-07-01T10:25:47;20.10;97.10
23546;DHT22;11951;52.138;4.464;2022-07-01T10:28:13;20.30;97.10
23546;DHT22;11951;52.138;4.464;2022-07-01T10:35:52;21.20;97.10
23546;DHT22;11951;52.138;4.464;2022-07-01T10:38:17;21.50;97.10
23546;DHT22;11951;52.138;4.464;2022-07-01T10:40:44;21.50;97.10
23546;DHT22;11951;52.138;4.464;2022-07-01T10:43:17;21.10;97.10
23546;DHT22;11951;52.138;4.464;2022-07-01T10:45:56;20.90;97.10
23546;DHT22;11951;52.138;4.464;2022-07-01T10:48:25;20.90;97.10
23546;DHT22;11951;52.138;4.464;2022-07-01T10:50:51;21.20;97.10
23546;DHT22;11951;52.138;4.464;2022-07-01T10:53:17;21.70;97.10
23546;DHT22;11951;52.138;4.464;2022-07-01T10:55:46;22.00;97.10
23546;DHT22;11951;52.138;4.464;2022-07-01T10:58:13;22.30;97.10
23546;DHT22;11951;52.138;4.464;2022-07-01T11:00:42;22.10;97.10
23546;DHT22;11951;52.138;4.464;2022-07-01T11:03:10;21.70;97.10
23546;DHT22;11951;52.138;4.464;2022-07-01T11:05:36;21.40;97.10
23546;DHT22;11951;52.138;4.464;2022-07-01T11:08:04;21.30;97.10
23546;DHT22;11951;52.138;4.464;2022-07-01T11:10:30;21.20;97.10
23546;DHT22;11951;52.138;4.464;2022-07-01T11:12:55;21.00;97.10
23546;DHT22;11951;52.138;4.464;2022-07-01T11:15:21;20.50;97.10
23546;DHT22;11951;52.138;4.464;2022-07-01T11:17:48;20.00;97.10
23546;DHT22;11951;52.138;4.464;2022-07-01T11:20:14;19.60;97.10
23546;DHT22;11951;52.138;4.464;2022-07-01T11:22:40;19.30;97.10
23546;DHT22;11951;52.138;4.464;2022-07-01T11:25:11;19.20;97.10
23546;DHT22;11951;52.138;4.464;2022-07-01T11:27:39;19.10;97.10
23546;DHT22;11951;52.138;4.464;2022-07-01T11:30:07;19.00;97.10
23546;DHT22;11951;52.138;4.464;2022-07-01T11:32:35;18.90;97.10
23546;DHT22;11951;52.138;4.464;2022-07-01T11:35:02;18.80;97.10
23546;DHT22;11951;52.138;4.464;2022-07-01T11:37:28;18.80;97.10
23546;DHT22;11951;52.138;4.464;2022-07-01T11:40:13;18.80;97.10
23546;DHT22;11951;52.138;4.464;2022-07-01T11:42:39;18.70;97.10
23546;DHT22;11951;52.138;4.464;2022-07-01T11:45:06;18.70;97.10
23546;DHT22;11951;52.138;4.464;2022-07-01T11:47:31;18.50;97.10
23546;DHT22;11951;52.138;4.464;2022-07-01T11:49:57;18.50;97.10
23546;DHT22;11951;52.138;4.464;2022-07-01T11:52:24;18.40;97.10
23546;DHT22;11951;52.138;4.464;2022-07-01T11:54:50;18.30;97.10
23546;DHT22;11951;52.138;4.464;2022-07-01T11:57:20;18.30;97.10
23546;DHT22;11951;52.138;4.464;2022-07-01T11:59:47;18.50;97.10
23546;DHT22;11951;52.138;4.464;2022-07-01T12:02:13;18.70;97.10
23546;DHT22;11951;52.138;4.464;2022-07-01T12:04:40;19.30;97.10
23546;DHT22;11951;52.138;4.464;2022-07-01T12:07:06;19.50;97.10
23546;DHT22;11951;52.138;4.464;2022-07-01T12:09:32;19.70;97.10
23546;DHT22;11951;52.138;4.464;2022-07-01T12:11:58;19.80;97.10
23546;DHT22;11951;52.138;4.464;2022-07-01T12:14:24;20.50;97.10
23546;DHT22;11951;52.138;4.464;2022-07-01T12:16:54;21.50;97.10
23546;DHT22;11951;52.138;4.464;2022-07-01T12:19:20;22.40;97.10
23546;DHT22;11951;52.138;4.464;2022-07-01T12:21:52;23.00;93.30
23546;DHT22;11951;52.138;4.464;2022-07-01T12:24:18;23.20;95.10
23546;DHT22;11951;52.138;4.464;2022-07-01T12:26:51;22.80;93.70
23546;DHT22;11951;52.138;4.464;2022-07-01T12:29:17;22.40;95.30
23546;DHT22;11951;52.138;4.464;2022-07-01T12:31:43;21.90;95.60
23546;DHT22;11951;52.138;4.464;2022-07-01T12:34:09;21.60;97.10
23546;DHT22;11951;52.138;4.464;2022-07-01T12:36:34;21.70;97.10
23546;DHT22;11951;52.138;4.464;2022-07-01T12:39:02;21.70;96.70
23546;DHT22;11951;52.138;4.464;2022-07-01T12:41:28;21.40;97.10
23546;DHT22;11951;52.138;4.464;2022-07-01T12:43:54;21.20;97.10
23546;DHT22;11951;52.138;4.464;2022-07-01T12:46:26;21.10;97.10
23546;DHT22;11951;52.138;4.464;2022-07-01T12:48:52;21.00;97.10
23546;DHT22;11951;52.138;4.464;2022-07-01T12:51:17;21.20;97.10
23546;DHT22;11951;52.138;4.464;2022-07-01T12:53:43;21.20;97.10
23546;DHT22;11951;52.138;4.464;2022-07-01T12:56:20;21.10;97.10
23546;DHT22;11951;52.138;4.464;2022-07-01T12:58:46;20.90;97.10
23546;DHT22;11951;52.138;4.464;2022-07-01T13:01:12;20.80;97.10
23546;DHT22;11951;52.138;4.464;2022-07-01T13:03:38;20.70;97.10
23546;DHT22;11951;52.138;4.464;2022-07-01T13:06:04;20.50;97.10
23546;DHT22;11951;52.138;4.464;2022-07-01T13:08:30;20.20;97.10
23546;DHT22;11951;52.138;4.464;2022-07-01T13:10:55;19.90;97.10
23546;DHT22;11951;52.138;4.464;2022-07-01T13:13:20;19.80;97.10
23546;DHT22;11951;52.138;4.464;2022-07-01T13:15:47;19.80;97.10
23546;DHT22;11951;52.138;4.464;2022-07-01T13:18:13;19.50;97.10
23546;DHT22;11951;52.138;4.464;2022-07-01T13:20:40;19.50;97.10
23546;DHT22;11951;52.138;4.464;2022-07-01T13:23:05;19.80;97.10
23546;DHT22;11951;52.138;4.464;2022-07-01T13:25:31;20.00;97.10
23546;DHT22;11951;52.138;4.464;2022-07-01T13:27:57;20.00;97.10
23546;DHT22;11951;52.138;4.464;2022-07-01T13:30:22;20.30;97.10
23546;DHT22;11951;52.138;4.464;2022-07-01T13:32:48;20.60;97.10
23546;DHT22;11951;52.138;4.464;2022-07-01T13:35:17;20.70;97.10
23546;DHT22;11951;52.138;4.464;2022-07-01T13:37:43;20.60;97.10
23546;DHT22;11951;52.138;4.464;2022-07-01T13:40:08;20.50;97.10
23546;DHT22;11951;52.138;4.464;2022-07-01T13:42:35;20.30;97.10
23546;DHT22;11951;52.138;4.464;2022-07-01T13:45:01;20.20;97.10
23546;DHT22;11951;52.138;4.464;2022-07-01T13:47:26;20.10;97.10
23546;DHT22;11951;52.138;4.464;2022-07-01T13:49:52;20.10;97.10
23546;DHT22;11951;52.138;4.464;2022-07-01T13:52:17;20.40;97.10
23546;DHT22;11951;52.138;4.464;2022-07-01T13:54:43;20.60;97.10
23546;DHT22;11951;52.138;4.464;2022-07-01T13:57:08;20.90;97.10
23546;DHT22;11951;52.138;4.464;2022-07-01T13:59:34;21.30;97.10
23546;DHT22;11951;52.138;4.464;2022-07-01T14:02:00;21.50;97.10
23546;DHT22;11951;52.138;4.464;2022-07-01T14:04:25;21.40;97.10
23546;DHT22;11951;52.138;4.464;2022-07-01T14:06:51;21.60;97.10
23546;DHT22;11951;52.138;4.464;2022-07-01T14:09:17;21.50;97.10
23546;DHT22;11951;52.138;4.464;2022-07-01T14:11:42;21.30;96.90
23546;DHT22;11951;52.138;4.464;2022-07-01T14:14:08;21.40;97.00
23546;DHT22;11951;52.138;4.464;2022-07-01T14:16:33;21.90;97.10
23546;DHT22;11951;52.138;4.464;2022-07-01T14:18:59;22.30;96.30
23546;DHT22;11951;52.138;4.464;2022-07-01T14:21:24;22.70;96.30
23546;DHT22;11951;52.138;4.464;2022-07-01T14:23:50;23.00;95.00
23546;DHT22;11951;52.138;4.464;2022-07-01T14:26:16;22.90;93.30
23546;DHT22;11951;52.138;4.464;2022-07-01T14:28:41;22.50;94.00
23546;DHT22;11951;52.138;4.464;2022-07-01T14:31:09;22.60;94.40
23546;DHT22;11951;52.138;4.464;2022-07-01T14:33:35;22.80;92.70
23546;DHT22;11951;52.138;4.464;2022-07-01T14:36:01;22.70;93.40
23546;DHT22;11951;52.138;4.464;2022-07-01T14:38:26;22.80;93.80
23546;DHT22;11951;52.138;4.464;2022-07-01T14:40:52;22.90;94.60
23546;DHT22;11951;52.138;4.464;2022-07-01T14:43:17;22.90;94.20
23546;DHT22;11951;52.138;4.464;2022-07-01T14:45:43;23.10;93.60
23546;DHT22;11951;52.138;4.464;2022-07-01T14:48:10;23.40;91.40
23546;DHT22;11951;52.138;4.464;2022-07-01T14:50:35;23.80;92.10
23546;DHT22;11951;52.138;4.464;2022-07-01T14:53:01;23.80;88.40
23546;DHT22;11951;52.138;4.464;2022-07-01T14:55:28;23.90;90.20
23546;DHT22;11951;52.138;4.464;2022-07-01T14:57:54;24.10;91.20
23546;DHT22;11951;52.138;4.464;2022-07-01T15:00:20;24.20;90.30
23546;DHT22;11951;52.138;4.464;2022-07-01T15:02:46;24.30;89.90
23546;DHT22;11951;52.138;4.464;2022-07-01T15:05:12;24.20;89.30
23546;DHT22;11951;52.138;4.464;2022-07-01T15:07:37;24.20;88.60
23546;DHT22;11951;52.138;4.464;2022-07-01T15:10:03;24.40;87.20
23546;DHT22;11951;52.138;4.464;2022-07-01T15:12:29;24.40;86.10
23546;DHT22;11951;52.138;4.464;2022-07-01T15:14:55;24.70;87.20
23546;DHT22;11951;52.138;4.464;2022-07-01T15:17:22;25.10;86.80
23546;DHT22;11951;52.138;4.464;2022-07-01T15:19:48;25.00;82.50
23546;DHT22;11951;52.138;4.464;2022-07-01T15:22:13;24.80;83.10
23546;DHT22;11951;52.138;4.464;2022-07-01T15:24:39;24.60;83.00
23546;DHT22;11951;52.138;4.464;2022-07-01T15:27:05;24.40;80.80
23546;DHT22;11951;52.138;4.464;2022-07-01T15:29:31;24.60;80.00
23546;DHT22;11951;52.138;4.464;2022-07-01T15:31:57;24.90;80.20
23546;DHT22;11951;52.138;4.464;2022-07-01T15:34:23;25.10;77.20
23546;DHT22;11951;52.138;4.464;2022-07-01T15:36:48;25.20;77.50
23546;DHT22;11951;52.138;4.464;2022-07-01T15:39:14;25.40;76.70